createdAt,value
2022-11-05T00:01:57.947Z,1009.86
2022-11-05T00:04:11.015Z,1009.85
2022-11-05T00:06:23.049Z,1009.85
2022-11-05T00:08:35.149Z,1009.93
2022-11-05T00:10:47.283Z,1009.91
2022-11-05T00:12:59.338Z,1009.93
2022-11-05T00:15:11.394Z,1009.96
2022-11-05T00:17:23.522Z,1009.98
2022-11-05T00:19:36.604Z,1010.02
2022-11-05T00:21:48.750Z,1010.07
2022-11-05T00:24:00.803Z,1010.09
2022-11-05T00:26:13.883Z,1010.11
2022-11-05T00:28:25.966Z,1010.10
2022-11-05T00:30:38.055Z,1010.10
2022-11-05T00:32:50.150Z,1010.11
2022-11-05T00:35:02.206Z,1010.11
2022-11-05T00:37:15.288Z,1010.14
2022-11-05T00:39:27.349Z,1010.16
2022-11-05T00:41:39.437Z,1010.12
2022-11-05T00:43:51.541Z,1010.18
2022-11-05T00:46:03.599Z,1010.19
2022-11-05T00:48:15.672Z,1010.24
2022-11-05T00:50:27.769Z,1010.27
2022-11-05T00:52:39.831Z,1010.27
2022-11-05T00:54:51.933Z,1010.27
2022-11-05T00:57:04.919Z,1010.28
2022-11-05T00:59:16.111Z,1010.28
2022-11-05T01:01:28.255Z,1010.25
2022-11-05T01:03:40.279Z,1010.31
2022-11-05T01:05:52.392Z,1010.33
2022-11-05T01:08:04.441Z,1010.38
2022-11-05T01:10:16.516Z,1010.40
2022-11-05T01:12:28.605Z,1010.44
2022-11-05T01:14:40.679Z,1010.45
2022-11-05T01:16:52.788Z,1010.44
2022-11-05T01:19:04.849Z,1010.50
2022-11-05T01:21:16.928Z,1010.48
2022-11-05T01:23:29.023Z,1010.52
2022-11-05T01:25:41.287Z,1010.55
2022-11-05T01:27:53.203Z,1010.57
2022-11-05T01:30:06.262Z,1010.57
2022-11-05T01:32:18.363Z,1010.61
2022-11-05T01:34:30.422Z,1010.62
2022-11-05T01:36:42.511Z,1010.65
2022-11-05T01:38:54.613Z,1010.69
2022-11-05T01:41:06.960Z,1010.70
2022-11-05T01:43:19.048Z,1010.70
2022-11-05T01:45:31.184Z,1010.74
2022-11-05T01:47:43.266Z,1010.79
2022-11-05T01:49:55.367Z,1010.82
2022-11-05T01:52:07.453Z,1010.83
2022-11-05T01:54:19.492Z,1010.86
2022-11-05T01:56:31.583Z,1010.91
2022-11-05T01:58:43.667Z,1010.93
2022-11-05T02:00:55.762Z,1010.98
2022-11-05T02:03:10.001Z,1011.00
2022-11-05T02:05:20.910Z,1011.04
2022-11-05T02:07:33.045Z,1011.05
2022-11-05T02:09:45.070Z,1011.04
2022-11-05T02:11:57.182Z,1011.07
2022-11-05T02:14:09.242Z,1011.09
2022-11-05T02:16:21.380Z,1011.11
2022-11-05T02:18:33.782Z,1011.10
2022-11-05T02:20:51.833Z,1011.15
2022-11-05T02:22:57.966Z,1011.15
2022-11-05T02:25:10.025Z,1011.18
2022-11-05T02:27:23.094Z,1011.16
2022-11-05T02:29:35.177Z,1011.19
2022-11-05T02:31:47.253Z,1011.17
2022-11-05T02:33:59.370Z,1011.16
2022-11-05T02:36:11.431Z,1011.14
2022-11-05T02:38:24.358Z,1011.18
2022-11-05T02:40:35.577Z,1011.22
2022-11-05T02:42:47.660Z,1011.19
2022-11-05T02:45:00.089Z,1011.24
2022-11-05T02:47:17.048Z,1011.19
2022-11-05T02:49:24.212Z,1011.20
2022-11-05T02:51:36.301Z,1011.27
2022-11-05T02:53:47.381Z,1011.29
2022-11-05T02:55:59.506Z,1011.32
2022-11-05T02:58:11.546Z,1011.34
2022-11-05T03:00:23.633Z,1011.38
2022-11-05T03:02:35.838Z,1011.39
2022-11-05T03:04:47.793Z,1011.43
2022-11-05T03:06:59.896Z,1011.51
2022-11-05T03:09:11.945Z,1011.48
2022-11-05T03:11:24.042Z,1011.50
2022-11-05T03:13:36.106Z,1011.56
2022-11-05T03:15:48.197Z,1011.56
2022-11-05T03:18:01.272Z,1011.56
2022-11-05T03:20:13.332Z,1011.60
2022-11-05T03:22:25.420Z,1011.67
2022-11-05T03:24:38.495Z,1011.66
2022-11-05T03:26:51.563Z,1011.70
2022-11-05T03:29:03.685Z,1011.70
2022-11-05T03:31:16.572Z,1011.71
2022-11-05T03:33:27.814Z,1011.73
2022-11-05T03:35:39.927Z,1011.76
2022-11-05T03:37:51.971Z,1011.79
2022-11-05T03:40:04.087Z,1011.80
2022-11-05T03:42:16.144Z,1011.83
2022-11-05T03:44:28.248Z,1011.87
2022-11-05T03:46:40.319Z,1011.95
2022-11-05T03:48:52.450Z,1011.93
2022-11-05T03:51:04.520Z,1011.96
2022-11-05T03:53:18.598Z,1012.00
2022-11-05T03:55:30.675Z,1011.99
2022-11-05T03:57:42.728Z,1012.06
2022-11-05T03:59:54.862Z,1012.07
2022-11-05T04:02:07.084Z,1012.10
2022-11-05T04:04:19.054Z,1012.09
2022-11-05T04:06:31.129Z,1012.12
2022-11-05T04:08:43.205Z,1012.15
2022-11-05T04:10:55.287Z,1012.18
2022-11-05T04:13:07.556Z,1012.17
2022-11-05T04:15:19.459Z,1012.22
2022-11-05T04:17:31.549Z,1012.22
2022-11-05T04:19:43.614Z,1012.33
2022-11-05T04:21:55.705Z,1012.34
2022-11-05T04:24:07.808Z,1012.36
2022-11-05T04:26:19.877Z,1012.32
2022-11-05T04:28:31.981Z,1012.36
2022-11-05T04:30:44.041Z,1012.41
2022-11-05T04:32:56.120Z,1012.48
2022-11-05T04:35:08.237Z,1012.43
2022-11-05T04:37:20.308Z,1012.46
2022-11-05T04:39:32.387Z,1012.43
2022-11-05T04:41:44.458Z,1012.41
2022-11-05T04:43:56.537Z,1012.44
2022-11-05T04:46:08.780Z,1012.41
2022-11-05T04:48:20.700Z,1012.49
2022-11-05T04:50:32.790Z,1012.54
2022-11-05T04:52:44.900Z,1012.51
2022-11-05T04:54:56.973Z,1012.63
2022-11-05T04:57:10.101Z,1012.65
2022-11-05T04:59:22.149Z,1012.68
2022-11-05T05:01:34.294Z,1012.69
2022-11-05T05:03:46.302Z,1012.67
2022-11-05T05:06:03.495Z,1012.70
2022-11-05T05:08:10.490Z,1012.66
2022-11-05T05:10:22.540Z,1012.71
2022-11-05T05:12:35.630Z,1012.71
2022-11-05T05:14:47.702Z,1012.65
2022-11-05T05:16:59.790Z,1012.72
2022-11-05T05:19:11.919Z,1012.74
2022-11-05T05:21:24.961Z,1012.71
2022-11-05T05:23:37.036Z,1012.67
2022-11-05T05:25:49.131Z,1012.75
2022-11-05T05:28:02.203Z,1012.78
2022-11-05T05:30:14.303Z,1012.83
2022-11-05T05:32:26.363Z,1012.83
2022-11-05T05:34:39.426Z,1012.88
2022-11-05T05:36:52.356Z,1012.84
2022-11-05T05:39:03.593Z,1012.81
2022-11-05T05:41:15.724Z,1012.84
2022-11-05T05:43:27.790Z,1012.92
2022-11-05T05:45:39.892Z,1012.97
2022-11-05T05:47:51.938Z,1012.99
2022-11-05T05:50:04.039Z,1013.02
2022-11-05T05:52:16.137Z,1013.03
2022-11-05T05:54:32.324Z,1013.08
2022-11-05T05:56:41.243Z,1013.13
2022-11-05T05:58:53.337Z,1013.16
2022-11-05T06:01:05.415Z,1013.15
2022-11-05T06:03:17.522Z,1013.23
2022-11-05T06:05:29.571Z,1013.25
2022-11-05T06:07:41.674Z,1013.29
2022-11-05T06:09:53.743Z,1013.34
2022-11-05T06:12:05.811Z,1013.35
2022-11-05T06:14:17.921Z,1013.37
2022-11-05T06:16:30.001Z,1013.42
2022-11-05T06:18:42.099Z,1013.54
2022-11-05T06:20:54.138Z,1013.56
2022-11-05T06:23:06.257Z,1013.59
2022-11-05T06:25:18.335Z,1013.61
2022-11-05T06:27:30.394Z,1013.60
2022-11-05T06:29:42.478Z,1013.67
2022-11-05T06:31:54.546Z,1013.75
2022-11-05T06:34:07.625Z,1013.77
2022-11-05T06:36:19.738Z,1013.79
2022-11-05T06:38:31.794Z,1013.77
2022-11-05T06:40:43.866Z,1013.81
2022-11-05T06:42:56.046Z,1013.85
2022-11-05T06:45:08.050Z,1013.90
2022-11-05T06:47:20.203Z,1013.91
2022-11-05T06:49:32.234Z,1013.93
2022-11-05T06:51:44.332Z,1013.98
2022-11-05T06:53:56.411Z,1013.99
2022-11-05T06:56:11.986Z,1014.04
2022-11-05T06:58:28.624Z,1014.09
2022-11-05T07:00:46.756Z,1014.11
2022-11-05T07:02:58.745Z,1014.07
2022-11-05T07:05:10.835Z,1014.09
2022-11-05T07:07:22.915Z,1014.13
2022-11-05T07:09:35.004Z,1014.15
2022-11-05T07:11:47.073Z,1014.18
2022-11-05T07:13:59.146Z,1014.26
2022-11-05T07:16:11.236Z,1014.27
2022-11-05T07:18:23.301Z,1014.32
2022-11-05T07:20:35.506Z,1014.38
2022-11-05T07:22:47.502Z,1014.38
2022-11-05T07:24:59.577Z,1014.34
2022-11-05T07:27:11.657Z,1014.36
2022-11-05T07:29:23.744Z,1014.36
2022-11-05T07:31:35.855Z,1014.39
2022-11-05T07:33:47.902Z,1014.50
2022-11-05T07:36:00.000Z,1014.57
2022-11-05T07:38:12.070Z,1014.59
2022-11-05T07:40:24.153Z,1014.62
2022-11-05T07:42:36.250Z,1014.68
2022-11-05T07:44:48.328Z,1014.65
2022-11-05T07:47:00.569Z,1014.69
2022-11-05T07:49:12.480Z,1014.74
2022-11-05T07:51:24.561Z,1014.77
2022-11-05T07:53:39.834Z,1014.79
2022-11-05T07:55:49.774Z,1014.85
2022-11-05T07:58:00.925Z,1014.82
2022-11-05T08:00:13.017Z,1014.78
2022-11-05T08:02:25.384Z,1014.70
2022-11-05T08:04:38.017Z,1014.69
2022-11-05T08:06:49.219Z,1014.69
2022-11-05T08:09:01.320Z,1014.70
2022-11-05T08:11:13.421Z,1014.69
2022-11-05T08:13:25.517Z,1014.69
2022-11-05T08:15:37.603Z,1014.71
2022-11-05T08:17:49.650Z,1014.72
2022-11-05T08:20:01.758Z,1014.75
2022-11-05T08:22:13.822Z,1014.79
2022-11-05T08:24:25.987Z,1014.73
2022-11-05T08:26:38.023Z,1014.76
2022-11-05T08:28:51.049Z,1014.75
2022-11-05T08:31:04.115Z,1014.86
2022-11-05T08:33:17.189Z,1014.84
2022-11-05T08:35:29.320Z,1014.87
2022-11-05T08:37:41.385Z,1014.87
2022-11-05T08:39:53.427Z,1014.92
2022-11-05T08:42:05.509Z,1014.92
2022-11-05T08:44:17.595Z,1014.97
2022-11-05T08:46:30.659Z,1014.98
2022-11-05T08:48:42.767Z,1014.99
2022-11-05T08:50:54.824Z,1015.03
2022-11-05T08:53:06.894Z,1015.08
2022-11-05T08:55:19.008Z,1015.14
2022-11-05T08:57:31.063Z,1015.21
2022-11-05T08:59:43.163Z,1015.25
2022-11-05T09:01:55.367Z,1015.27
2022-11-05T09:04:07.351Z,1015.33
2022-11-05T09:06:19.437Z,1015.33
2022-11-05T09:08:31.527Z,1015.30
2022-11-05T09:10:43.628Z,1015.32
2022-11-05T09:12:57.009Z,1015.29
2022-11-05T09:15:07.761Z,1015.35
2022-11-05T09:17:20.829Z,1015.39
2022-11-05T09:19:36.605Z,1015.42
2022-11-05T09:21:45.001Z,1015.46
2022-11-05T09:23:57.066Z,1015.53
2022-11-05T09:26:09.146Z,1015.58
2022-11-05T09:28:21.227Z,1015.59
2022-11-05T09:30:34.297Z,1015.59
2022-11-05T09:32:46.392Z,1015.58
2022-11-05T09:34:58.452Z,1015.59
2022-11-05T09:37:10.527Z,1015.63
2022-11-05T09:39:23.595Z,1015.64
2022-11-05T09:41:35.674Z,1015.68
2022-11-05T09:43:47.788Z,1015.72
2022-11-05T09:45:59.826Z,1015.72
2022-11-05T09:48:11.919Z,1015.69
2022-11-05T09:50:25.305Z,1015.74
2022-11-05T09:52:37.611Z,1015.75
2022-11-05T09:54:49.485Z,1015.76
2022-11-05T09:57:01.537Z,1015.83
2022-11-05T09:59:14.599Z,1015.80
2022-11-05T10:01:26.872Z,1015.84
2022-11-05T10:03:38.758Z,1015.80
2022-11-05T10:05:51.263Z,1015.78
2022-11-05T10:08:02.929Z,1015.81
2022-11-05T10:10:15.050Z,1015.82
2022-11-05T10:12:27.138Z,1015.78
2022-11-05T10:14:39.212Z,1015.76
2022-11-05T10:16:51.316Z,1015.77
2022-11-05T10:19:03.383Z,1015.78
2022-11-05T10:21:15.447Z,1015.77
2022-11-05T10:23:27.536Z,1015.78
2022-11-05T10:25:39.604Z,1015.82
2022-11-05T10:27:52.707Z,1015.83
2022-11-05T10:30:04.777Z,1015.84
2022-11-05T10:32:16.858Z,1015.88
2022-11-05T10:34:28.927Z,1015.87
2022-11-05T10:36:41.332Z,1015.88
2022-11-05T10:38:54.391Z,1015.85
2022-11-05T10:41:06.460Z,1015.91
2022-11-05T10:43:18.565Z,1015.88
2022-11-05T10:45:30.631Z,1015.88
2022-11-05T10:47:42.700Z,1015.93
2022-11-05T10:49:54.814Z,1015.94
2022-11-05T10:52:06.880Z,1015.98
2022-11-05T10:54:18.958Z,1015.95
2022-11-05T10:56:31.878Z,1015.95
2022-11-05T10:58:44.110Z,1015.91
2022-11-05T11:00:56.284Z,1015.92
2022-11-05T11:03:08.822Z,1015.94
2022-11-05T11:05:20.353Z,1015.99
2022-11-05T11:07:32.414Z,1015.99
2022-11-05T11:09:44.492Z,1015.99
2022-11-05T11:11:56.607Z,1015.96
2022-11-05T11:14:08.667Z,1015.96
2022-11-05T11:16:20.751Z,1016.01
2022-11-05T11:18:37.406Z,1016.03
2022-11-05T11:20:44.899Z,1016.06
2022-11-05T11:22:57.048Z,1016.09
2022-11-05T11:25:09.080Z,1016.08
2022-11-05T11:27:22.155Z,1016.07
2022-11-05T11:29:34.251Z,1016.04
2022-11-05T11:31:46.334Z,1016.08
2022-11-05T11:33:58.446Z,1016.11
2022-11-05T11:36:10.488Z,1016.09
2022-11-05T11:38:22.568Z,1016.07
2022-11-05T11:40:34.650Z,1016.16
2022-11-05T11:42:46.741Z,1016.12
2022-11-05T11:45:00.330Z,1016.06
2022-11-05T11:47:16.723Z,1016.08
2022-11-05T11:49:24.519Z,1016.18
2022-11-05T11:51:36.556Z,1016.16
2022-11-05T11:53:48.717Z,1016.17
2022-11-05T11:56:00.804Z,1016.14
2022-11-05T11:58:12.871Z,1016.18
2022-11-05T12:00:24.957Z,1016.17
2022-11-05T12:02:37.094Z,1016.17
2022-11-05T12:04:49.133Z,1016.22
2022-11-05T12:07:01.218Z,1016.18
2022-11-05T12:09:13.272Z,1016.18
2022-11-05T12:11:25.355Z,1016.17
2022-11-05T12:13:37.436Z,1016.16
2022-11-05T12:15:49.523Z,1016.20
2022-11-05T12:18:01.623Z,1016.21
2022-11-05T12:20:13.747Z,1016.15
2022-11-05T12:22:25.760Z,1016.17
2022-11-05T12:24:37.856Z,1016.17
2022-11-05T12:26:49.959Z,1016.17
2022-11-05T12:29:18.433Z,1016.14
2022-11-05T12:30:03.015Z,1016.10
2022-11-05T12:32:14.121Z,1016.09
2022-11-05T12:34:27.207Z,1016.12
2022-11-05T12:36:39.306Z,1016.11
2022-11-05T12:38:52.212Z,1016.08
2022-11-05T12:41:03.420Z,1016.04
2022-11-05T12:43:15.663Z,1016.09
2022-11-05T12:45:27.605Z,1016.09
2022-11-05T12:47:39.652Z,1016.09
2022-11-05T12:49:51.739Z,1016.11
2022-11-05T12:52:03.908Z,1016.09
2022-11-05T12:54:15.976Z,1016.08
2022-11-05T12:56:28.052Z,1016.16
2022-11-05T12:58:40.094Z,1016.12
2022-11-05T13:00:52.235Z,1016.15
2022-11-05T13:03:04.286Z,1016.14
2022-11-05T13:05:16.371Z,1016.13
2022-11-05T13:07:28.448Z,1016.13
2022-11-05T13:09:40.517Z,1016.16
2022-11-05T13:11:52.600Z,1016.16
2022-11-05T13:14:04.670Z,1016.16
2022-11-05T13:16:16.767Z,1016.17
2022-11-05T13:18:29.148Z,1016.16
2022-11-05T13:20:41.224Z,1016.22
2022-11-05T13:22:53.283Z,1016.22
2022-11-05T13:25:05.366Z,1016.20
2022-11-05T13:27:17.448Z,1016.22
2022-11-05T13:29:30.389Z,1016.21
2022-11-05T13:31:41.617Z,1016.17
2022-11-05T13:33:53.879Z,1016.20
2022-11-05T13:36:05.762Z,1016.18
2022-11-05T13:38:17.837Z,1016.20
2022-11-05T13:40:29.980Z,1016.25
2022-11-05T13:42:42.024Z,1016.22
2022-11-05T13:44:54.101Z,1016.22
2022-11-05T13:47:11.326Z,1016.27
2022-11-05T13:49:19.241Z,1016.29
2022-11-05T13:51:36.184Z,1016.33
2022-11-05T13:53:43.414Z,1016.33
2022-11-05T13:55:55.505Z,1016.38
2022-11-05T13:58:07.557Z,1016.40
2022-11-05T14:00:19.649Z,1016.43
2022-11-05T14:02:31.824Z,1016.47
2022-11-05T14:04:43.807Z,1016.45
2022-11-05T14:06:56.170Z,1016.44
2022-11-05T14:09:08.265Z,1016.45
2022-11-05T14:11:20.340Z,1016.43
2022-11-05T14:13:32.451Z,1016.44
2022-11-05T14:15:44.511Z,1016.45
2022-11-05T14:17:56.580Z,1016.48
2022-11-05T14:20:08.665Z,1016.46
2022-11-05T14:22:21.734Z,1016.49
2022-11-05T14:24:34.336Z,1016.51
2022-11-05T14:26:46.408Z,1016.51
2022-11-05T14:28:57.976Z,1016.51
2022-11-05T14:31:10.044Z,1016.51
2022-11-05T14:33:22.199Z,1016.58
2022-11-05T14:35:35.225Z,1016.58
2022-11-05T14:37:47.269Z,1016.61
2022-11-05T14:39:59.358Z,1016.62
2022-11-05T14:42:11.438Z,1016.59
2022-11-05T14:44:23.521Z,1016.58
2022-11-05T14:46:36.109Z,1016.63
2022-11-05T14:48:47.711Z,1016.58
2022-11-05T14:51:00.325Z,1016.57
2022-11-05T14:53:12.162Z,1016.57
2022-11-05T14:55:25.046Z,1016.58
2022-11-05T14:57:37.112Z,1016.58
2022-11-05T14:59:49.301Z,1016.62
2022-11-05T15:02:01.475Z,1016.61
2022-11-05T15:04:13.424Z,1016.63
2022-11-05T15:06:25.462Z,1016.66
2022-11-05T15:08:37.568Z,1016.68
2022-11-05T15:10:49.614Z,1016.73
2022-11-05T15:13:01.688Z,1016.75
2022-11-05T15:15:18.703Z,1016.77
2022-11-05T15:17:26.854Z,1016.76
2022-11-05T15:19:38.996Z,1016.75
2022-11-05T15:21:51.024Z,1016.78
2022-11-05T15:24:03.184Z,1016.79
2022-11-05T15:26:15.212Z,1016.86
2022-11-05T15:28:27.306Z,1016.83
2022-11-05T15:30:39.455Z,1016.90
2022-11-05T15:32:51.505Z,1016.93
2022-11-05T15:35:03.616Z,1016.94
2022-11-05T15:37:15.679Z,1016.95
2022-11-05T15:39:29.924Z,1016.96
2022-11-05T15:41:39.845Z,1016.98
2022-11-05T15:43:51.894Z,1017.01
2022-11-05T15:46:05.014Z,1017.02
2022-11-05T15:48:17.092Z,1016.97
2022-11-05T15:50:29.164Z,1017.01
2022-11-05T15:52:42.357Z,1017.04
2022-11-05T15:54:55.161Z,1017.07
2022-11-05T15:57:06.419Z,1017.09
2022-11-05T15:59:18.519Z,1017.08
2022-11-05T16:01:30.746Z,1017.10
2022-11-05T16:03:42.689Z,1017.11
2022-11-05T16:05:54.808Z,1017.09
2022-11-05T16:08:06.967Z,1017.14
2022-11-05T16:10:18.952Z,1017.15
2022-11-05T16:12:31.054Z,1017.12
2022-11-05T16:14:43.152Z,1017.14
2022-11-05T16:16:55.216Z,1017.11
2022-11-05T16:19:08.230Z,1017.13
2022-11-05T16:21:19.385Z,1017.12
2022-11-05T16:23:31.492Z,1017.10
2022-11-05T16:25:43.605Z,1017.11
2022-11-05T16:27:55.657Z,1017.15
2022-11-05T16:30:07.743Z,1017.18
2022-11-05T16:32:19.836Z,1017.15
2022-11-05T16:34:31.920Z,1017.15
2022-11-05T16:36:44.019Z,1017.21
2022-11-05T16:38:56.075Z,1017.28
2022-11-05T16:41:08.165Z,1017.28
2022-11-05T16:43:20.233Z,1017.34
2022-11-05T16:45:35.922Z,1017.39
2022-11-05T16:47:44.432Z,1017.46
2022-11-05T16:49:56.503Z,1017.47
2022-11-05T16:52:08.587Z,1017.52
2022-11-05T16:54:21.464Z,1017.54
2022-11-05T16:56:32.742Z,1017.52
2022-11-05T16:58:44.864Z,1017.50
2022-11-05T17:00:56.950Z,1017.57
2022-11-05T17:03:09.011Z,1017.56
2022-11-05T17:05:21.098Z,1017.59
2022-11-05T17:07:38.506Z,1017.65
2022-11-05T17:09:45.318Z,1017.66
2022-11-05T17:11:57.330Z,1017.71
2022-11-05T17:14:09.413Z,1017.72
2022-11-05T17:16:21.540Z,1017.74
2022-11-05T17:18:33.635Z,1017.78
2022-11-05T17:20:46.734Z,1017.81
2022-11-05T17:22:59.803Z,1017.81
2022-11-05T17:25:11.965Z,1017.85
2022-11-05T17:27:23.969Z,1017.88
2022-11-05T17:29:36.056Z,1017.93
2022-11-05T17:31:48.144Z,1017.97
2022-11-05T17:34:00.499Z,1018.02
2022-11-05T17:36:12.335Z,1017.97
2022-11-05T17:38:24.382Z,1017.98
2022-11-05T17:40:36.463Z,1017.99
2022-11-05T17:42:48.558Z,1018.01
2022-11-05T17:45:00.613Z,1018.06
2022-11-05T17:47:12.697Z,1018.02
2022-11-05T17:49:24.812Z,1017.99
2022-11-05T17:51:36.860Z,1018.02
2022-11-05T17:53:48.970Z,1018.01
2022-11-05T17:56:01.029Z,1018.05
2022-11-05T17:58:13.100Z,1018.09
2022-11-05T18:00:25.235Z,1018.12
2022-11-05T18:02:38.246Z,1018.15
2022-11-05T18:04:49.443Z,1018.13
2022-11-05T18:07:01.466Z,1018.17
2022-11-05T18:09:13.551Z,1018.14
2022-11-05T18:11:25.632Z,1018.05
2022-11-05T18:13:37.701Z,1018.09
2022-11-05T18:15:49.809Z,1018.04
2022-11-05T18:18:01.864Z,1018.03
2022-11-05T18:20:18.887Z,1018.00
2022-11-05T18:22:27.011Z,1017.99
2022-11-05T18:24:40.123Z,1018.00
2022-11-05T18:26:52.203Z,1018.02
2022-11-05T18:29:04.259Z,1018.05
2022-11-05T18:31:18.229Z,1018.02
2022-11-05T18:33:29.411Z,1018.06
2022-11-05T18:35:41.510Z,1017.98
2022-11-05T18:37:53.613Z,1017.98
2022-11-05T18:40:05.672Z,1018.03
2022-11-05T18:42:17.776Z,1018.03
2022-11-05T18:44:32.668Z,1018.08
2022-11-05T18:46:57.527Z,1018.05
2022-11-05T18:48:54.026Z,1018.05
2022-11-05T18:51:06.086Z,1018.08
2022-11-05T18:53:18.170Z,1018.03
2022-11-05T18:55:30.262Z,1018.10
2022-11-05T18:57:42.329Z,1018.03
2022-11-05T18:59:54.452Z,1018.04
2022-11-05T19:02:07.677Z,1018.01
2022-11-05T19:04:19.560Z,1018.02
2022-11-05T19:06:31.641Z,1017.96
2022-11-05T19:08:43.731Z,1017.98
2022-11-05T19:10:55.838Z,1018.06
2022-11-05T19:13:07.897Z,1018.07
2022-11-05T19:15:19.976Z,1018.07
2022-11-05T19:17:32.066Z,1018.08
2022-11-05T19:19:44.120Z,1018.15
2022-11-05T19:21:57.211Z,1018.13
2022-11-05T19:24:09.276Z,1018.13
2022-11-05T19:26:27.179Z,1018.12
2022-11-05T19:28:33.437Z,1018.14
2022-11-05T19:30:46.499Z,1018.10
2022-11-05T19:32:58.615Z,1018.08
2022-11-05T19:35:10.657Z,1018.08
2022-11-05T19:37:22.739Z,1018.09
2022-11-05T19:39:35.816Z,1018.02
2022-11-05T19:41:47.889Z,1018.03
2022-11-05T19:44:00.068Z,1018.05
2022-11-05T19:46:12.059Z,1018.02
2022-11-05T19:48:24.403Z,1018.01
2022-11-05T19:50:37.207Z,1018.01
2022-11-05T19:52:49.288Z,1018.02
2022-11-05T19:55:01.406Z,1018.05
2022-11-05T19:57:13.458Z,1018.03
2022-11-05T19:59:25.530Z,1018.10
2022-11-05T20:01:37.799Z,1018.16
2022-11-05T20:03:49.842Z,1018.18
2022-11-05T20:06:01.809Z,1018.18
2022-11-05T20:08:14.369Z,1018.22
2022-11-05T20:10:26.034Z,1018.23
2022-11-05T20:12:38.025Z,1018.21
2022-11-05T20:14:50.106Z,1018.24
2022-11-05T20:17:02.195Z,1018.27
2022-11-05T20:19:14.268Z,1018.29
2022-11-05T20:21:27.172Z,1018.35
2022-11-05T20:23:38.985Z,1018.31
2022-11-05T20:25:50.528Z,1018.29
2022-11-05T20:28:02.638Z,1018.29
2022-11-05T20:30:15.513Z,1018.32
2022-11-05T20:32:26.781Z,1018.38
2022-11-05T20:34:38.821Z,1018.39
2022-11-05T20:36:51.791Z,1018.45
2022-11-05T20:39:04.003Z,1018.42
2022-11-05T20:41:16.062Z,1018.40
2022-11-05T20:43:30.480Z,1018.35
2022-11-05T20:45:40.231Z,1018.22
2022-11-05T20:47:52.308Z,1018.19
2022-11-05T20:50:05.737Z,1018.26
2022-11-05T20:52:16.468Z,1018.23
2022-11-05T20:54:28.549Z,1018.29
2022-11-05T20:56:40.661Z,1018.39
2022-11-05T20:58:52.705Z,1018.43
2022-11-05T21:01:04.879Z,1018.50
2022-11-05T21:03:16.885Z,1018.48
2022-11-05T21:05:34.202Z,1018.55
2022-11-05T21:07:41.040Z,1018.55
2022-11-05T21:09:53.132Z,1018.54
2022-11-05T21:12:05.243Z,1018.61
2022-11-05T21:14:18.787Z,1018.61
2022-11-05T21:16:32.566Z,1018.61
2022-11-05T21:18:45.527Z,1018.60
2022-11-05T21:20:57.525Z,1018.55
2022-11-05T21:23:10.641Z,1018.52
2022-11-05T21:25:22.694Z,1018.47
2022-11-05T21:27:34.768Z,1018.41
2022-11-05T21:29:47.844Z,1018.41
2022-11-05T21:31:59.937Z,1018.43
2022-11-05T21:34:12.030Z,1018.42
2022-11-05T21:36:24.105Z,1018.39
2022-11-05T21:38:36.198Z,1018.40
2022-11-05T21:40:48.268Z,1018.44
2022-11-05T21:43:00.347Z,1018.42
2022-11-05T21:45:12.449Z,1018.44
2022-11-05T21:47:24.503Z,1018.47
2022-11-05T21:49:36.579Z,1018.47
2022-11-05T21:51:48.729Z,1018.50
2022-11-05T21:54:00.827Z,1018.52
2022-11-05T21:56:13.027Z,1018.48
2022-11-05T21:58:24.993Z,1018.49
2022-11-05T22:00:37.092Z,1018.49
2022-11-05T22:02:49.438Z,1018.42
2022-11-05T22:05:01.238Z,1018.47
2022-11-05T22:07:14.350Z,1018.42
2022-11-05T22:09:27.245Z,1018.44
2022-11-05T22:11:38.483Z,1018.42
2022-11-05T22:13:50.562Z,1018.47
2022-11-05T22:16:02.642Z,1018.42
2022-11-05T22:18:15.146Z,1018.50
2022-11-05T22:20:26.804Z,1018.44
2022-11-05T22:22:38.923Z,1018.39
2022-11-05T22:24:50.995Z,1018.47
2022-11-05T22:27:03.078Z,1018.47
2022-11-05T22:29:15.186Z,1018.44
2022-11-05T22:31:31.799Z,1018.38
2022-11-05T22:33:39.317Z,1018.42
2022-11-05T22:35:51.397Z,1018.39
2022-11-05T22:38:03.472Z,1018.39
2022-11-05T22:40:15.599Z,1018.36
2022-11-05T22:42:27.720Z,1018.46
2022-11-05T22:44:39.728Z,1018.44
2022-11-05T22:46:51.816Z,1018.47
2022-11-05T22:49:03.945Z,1018.43
2022-11-05T22:51:16.056Z,1018.38
2022-11-05T22:53:28.095Z,1018.35
2022-11-05T22:55:40.164Z,1018.30
2022-11-05T22:57:52.260Z,1018.34
2022-11-05T23:00:04.336Z,1018.37
2022-11-05T23:02:17.557Z,1018.34
2022-11-05T23:04:30.335Z,1018.38
2022-11-05T23:06:42.551Z,1018.38
2022-11-05T23:08:54.636Z,1018.36
2022-11-05T23:11:06.726Z,1018.34
2022-11-05T23:13:18.818Z,1018.39
2022-11-05T23:15:30.856Z,1018.36
2022-11-05T23:17:42.957Z,1018.39
2022-11-05T23:19:55.031Z,1018.40
2022-11-05T23:22:07.116Z,1018.40
2022-11-05T23:24:19.213Z,1018.35
2022-11-05T23:26:31.277Z,1018.36
2022-11-05T23:28:43.354Z,1018.36
2022-11-05T23:30:56.437Z,1018.35
2022-11-05T23:33:09.465Z,1018.33
2022-11-05T23:35:20.624Z,1018.35
2022-11-05T23:37:32.679Z,1018.41
2022-11-05T23:39:44.764Z,1018.30
2022-11-05T23:41:56.878Z,1018.29
2022-11-05T23:44:08.938Z,1018.30
2022-11-05T23:46:21.038Z,1018.26
2022-11-05T23:48:33.101Z,1018.21
2022-11-05T23:50:45.168Z,1018.22
2022-11-05T23:52:57.290Z,1018.17
2022-11-05T23:55:10.320Z,1018.13
2022-11-05T23:57:22.416Z,1018.08
2022-11-05T23:59:34.512Z,1018.10
